sensor_id;sensor_type;location;lat;lon;timestamp;P1;durP1;ratioP1;P2;durP2;ratioP2
12005;SDS011;6062;47.294;12.182;2023-04-06T06:42:44;5.57;;;3.90;;
12005;SDS011;6062;47.294;12.182;2023-04-06T06:45:10;4.60;;;3.80;;
12005;SDS011;6062;47.294;12.182;2023-04-06T06:47:35;4.63;;;3.93;;
12005;SDS011;6062;47.294;12.182;2023-04-06T06:50:01;4.90;;;4.23;;
12005;SDS011;6062;47.294;12.182;2023-04-06T06:52:28;5.10;;;4.10;;
12005;SDS011;6062;47.294;12.182;2023-04-06T06:54:53;4.43;;;3.83;;
12005;SDS011;6062;47.294;12.182;2023-04-06T06:57:19;4.93;;;3.50;;
12005;SDS011;6062;47.294;12.182;2023-04-06T06:59:45;4.23;;;3.70;;
12005;SDS011;6062;47.294;12.182;2023-04-06T07:02:11;5.20;;;3.67;;
12005;SDS011;6062;47.294;12.182;2023-04-06T07:04:36;4.10;;;3.70;;
12005;SDS011;6062;47.294;12.182;2023-04-06T07:07:02;3.77;;;3.37;;
12005;SDS011;6062;47.294;12.182;2023-04-06T07:09:28;4.30;;;3.87;;
12005;SDS011;6062;47.294;12.182;2023-04-06T07:11:54;6.20;;;4.40;;
12005;SDS011;6062;47.294;12.182;2023-04-06T07:14:21;4.93;;;3.83;;
12005;SDS011;6062;47.294;12.182;2023-04-06T07:16:47;5.93;;;4.70;;
12005;SDS011;6062;47.294;12.182;2023-04-06T07:19:14;4.45;;;3.88;;
12005;SDS011;6062;47.294;12.182;2023-04-06T07:21:40;4.50;;;3.75;;
12005;SDS011;6062;47.294;12.182;2023-04-06T07:24:06;4.65;;;4.05;;
12005;SDS011;6062;47.294;12.182;2023-04-06T07:26:32;4.20;;;3.80;;
12005;SDS011;6062;47.294;12.182;2023-04-06T07:28:58;4.35;;;3.58;;
12005;SDS011;6062;47.294;12.182;2023-04-06T07:31:23;4.28;;;3.78;;
12005;SDS011;6062;47.294;12.182;2023-04-06T07:33:49;4.65;;;3.95;;
12005;SDS011;6062;47.294;12.182;2023-04-06T07:36:15;4.30;;;3.58;;
12005;SDS011;6062;47.294;12.182;2023-04-06T07:38:41;3.78;;;3.40;;
12005;SDS011;6062;47.294;12.182;2023-04-06T07:41:06;3.60;;;3.28;;
12005;SDS011;6062;47.294;12.182;2023-04-06T07:43:32;4.25;;;3.58;;
12005;SDS011;6062;47.294;12.182;2023-04-06T07:45:58;4.55;;;3.65;;
12005;SDS011;6062;47.294;12.182;2023-04-06T07:48:25;4.03;;;3.55;;
12005;SDS011;6062;47.294;12.182;2023-04-06T07:50:51;6.28;;;3.80;;
12005;SDS011;6062;47.294;12.182;2023-04-06T07:53:16;3.85;;;3.55;;
12005;SDS011;6062;47.294;12.182;2023-04-06T07:55:42;3.88;;;3.50;;
12005;SDS011;6062;47.294;12.182;2023-04-06T07:58:08;3.97;;;3.58;;
12005;SDS011;6062;47.294;12.182;2023-04-06T08:00:34;4.10;;;3.70;;
12005;SDS011;6062;47.294;12.182;2023-04-06T08:03:00;4.50;;;3.40;;
12005;SDS011;6062;47.294;12.182;2023-04-06T08:05:25;3.55;;;3.25;;
12005;SDS011;6062;47.294;12.182;2023-04-06T08:07:51;5.40;;;3.47;;
12005;SDS011;6062;47.294;12.182;2023-04-06T08:10:17;4.18;;;3.78;;
12005;SDS011;6062;47.294;12.182;2023-04-06T08:12:43;4.10;;;3.70;;
12005;SDS011;6062;47.294;12.182;2023-04-06T08:15:08;4.78;;;4.00;;
12005;SDS011;6062;47.294;12.182;2023-04-06T08:17:35;4.32;;;3.92;;
12005;SDS011;6062;47.294;12.182;2023-04-06T08:20:01;4.43;;;3.70;;
12005;SDS011;6062;47.294;12.182;2023-04-06T08:22:28;4.20;;;3.80;;
12005;SDS011;6062;47.294;12.182;2023-04-06T08:24:54;4.45;;;3.75;;
12005;SDS011;6062;47.294;12.182;2023-04-06T08:27:20;4.75;;;3.30;;
12005;SDS011;6062;47.294;12.182;2023-04-06T08:29:45;5.50;;;4.10;;
12005;SDS011;6062;47.294;12.182;2023-04-06T08:32:12;5.32;;;3.90;;
12005;SDS011;6062;47.294;12.182;2023-04-06T08:34:38;4.28;;;3.72;;
12005;SDS011;6062;47.294;12.182;2023-04-06T08:37:04;4.38;;;3.97;;
12005;SDS011;6062;47.294;12.182;2023-04-06T08:39:30;3.92;;;3.50;;
12005;SDS011;6062;47.294;12.182;2023-04-06T08:41:58;5.07;;;3.92;;
12005;SDS011;6062;47.294;12.182;2023-04-06T08:44:27;4.25;;;3.85;;
12005;SDS011;6062;47.294;12.182;2023-04-06T08:46:56;4.53;;;3.90;;
12005;SDS011;6062;47.294;12.182;2023-04-06T08:49:24;4.05;;;3.67;;
12005;SDS011;6062;47.294;12.182;2023-04-06T08:51:50;5.15;;;4.05;;
12005;SDS011;6062;47.294;12.182;2023-04-06T08:54:16;3.80;;;3.40;;
12005;SDS011;6062;47.294;12.182;2023-04-06T08:56:42;4.88;;;3.65;;
12005;SDS011;6062;47.294;12.182;2023-04-06T08:59:09;4.85;;;3.22;;
12005;SDS011;6062;47.294;12.182;2023-04-06T09:01:37;3.80;;;3.47;;
12005;SDS011;6062;47.294;12.182;2023-04-06T09:04:06;4.28;;;3.78;;
12005;SDS011;6062;47.294;12.182;2023-04-06T09:06:36;3.78;;;3.47;;
12005;SDS011;6062;47.294;12.182;2023-04-06T09:09:02;4.00;;;3.50;;
12005;SDS011;6062;47.294;12.182;2023-04-06T09:11:29;3.70;;;3.40;;
12005;SDS011;6062;47.294;12.182;2023-04-06T09:14:11;5.20;;;3.55;;
12005;SDS011;6062;47.294;12.182;2023-04-06T09:16:40;4.28;;;3.38;;
12005;SDS011;6062;47.294;12.182;2023-04-06T09:19:08;4.18;;;3.15;;
12005;SDS011;6062;47.294;12.182;2023-04-06T09:21:36;4.25;;;3.13;;
12005;SDS011;6062;47.294;12.182;2023-04-06T09:24:05;3.30;;;3.00;;
12005;SDS011;6062;47.294;12.182;2023-04-06T09:26:32;3.72;;;3.30;;
12005;SDS011;6062;47.294;12.182;2023-04-06T09:29:21;4.35;;;3.38;;
12005;SDS011;6062;47.294;12.182;2023-04-06T09:31:51;3.30;;;3.00;;
12005;SDS011;6062;47.294;12.182;2023-04-06T09:34:21;4.07;;;3.30;;
12005;SDS011;6062;47.294;12.182;2023-04-06T09:36:48;3.30;;;3.00;;
12005;SDS011;6062;47.294;12.182;2023-04-06T09:39:14;3.40;;;3.10;;
12005;SDS011;6062;47.294;12.182;2023-04-06T09:41:40;3.40;;;3.10;;
12005;SDS011;6062;47.294;12.182;2023-04-06T09:46:37;4.82;;;3.40;;
12005;SDS011;6062;47.294;12.182;2023-04-06T09:49:05;3.40;;;3.10;;
12005;SDS011;6062;47.294;12.182;2023-04-06T09:51:36;3.30;;;3.00;;
12005;SDS011;6062;47.294;12.182;2023-04-06T09:54:15;3.45;;;2.97;;
12005;SDS011;6062;47.294;12.182;2023-04-06T09:56:47;3.30;;;3.00;;
12005;SDS011;6062;47.294;12.182;2023-04-06T10:02:15;3.67;;;3.10;;
12005;SDS011;6062;47.294;12.182;2023-04-06T10:04:59;3.90;;;3.03;;
12005;SDS011;6062;47.294;12.182;2023-04-06T10:07:34;3.08;;;2.75;;
12005;SDS011;6062;47.294;12.182;2023-04-06T10:10:02;3.95;;;3.10;;
12005;SDS011;6062;47.294;12.182;2023-04-06T10:12:29;3.78;;;3.35;;
12005;SDS011;6062;47.294;12.182;2023-04-06T10:14:55;3.42;;;3.13;;
12005;SDS011;6062;47.294;12.182;2023-04-06T10:17:21;3.75;;;3.22;;
12005;SDS011;6062;47.294;12.182;2023-04-06T10:19:53;3.80;;;3.40;;
12005;SDS011;6062;47.294;12.182;2023-04-06T10:22:43;3.72;;;3.40;;
12005;SDS011;6062;47.294;12.182;2023-04-06T10:25:31;3.72;;;3.05;;
12005;SDS011;6062;47.294;12.182;2023-04-06T10:30:30;3.78;;;3.38;;
12005;SDS011;6062;47.294;12.182;2023-04-06T10:32:58;3.78;;;3.47;;
12005;SDS011;6062;47.294;12.182;2023-04-06T10:35:23;4.20;;;3.80;;
12005;SDS011;6062;47.294;12.182;2023-04-06T10:38:02;4.18;;;3.63;;
12005;SDS011;6062;47.294;12.182;2023-04-06T10:40:29;3.92;;;3.33;;
12005;SDS011;6062;47.294;12.182;2023-04-06T10:43:06;4.07;;;3.35;;
12005;SDS011;6062;47.294;12.182;2023-04-06T10:45:37;3.80;;;3.30;;
12005;SDS011;6062;47.294;12.182;2023-04-06T10:50:46;4.28;;;3.45;;
12005;SDS011;6062;47.294;12.182;2023-04-06T10:53:20;3.65;;;3.35;;
12005;SDS011;6062;47.294;12.182;2023-04-06T10:55:49;3.80;;;3.40;;
12005;SDS011;6062;47.294;12.182;2023-04-06T10:58:16;4.85;;;3.30;;
12005;SDS011;6062;47.294;12.182;2023-04-06T11:00:46;4.30;;;3.80;;
12005;SDS011;6062;47.294;12.182;2023-04-06T11:03:13;3.50;;;3.20;;
12005;SDS011;6062;47.294;12.182;2023-04-06T11:05:46;4.20;;;3.90;;
12005;SDS011;6062;47.294;12.182;2023-04-06T11:08:28;4.38;;;3.30;;
12005;SDS011;6062;47.294;12.182;2023-04-06T11:16:06;3.67;;;3.38;;
12005;SDS011;6062;47.294;12.182;2023-04-06T11:18:48;3.65;;;3.35;;
12005;SDS011;6062;47.294;12.182;2023-04-06T11:21:30;3.50;;;3.20;;
12005;SDS011;6062;47.294;12.182;2023-04-06T11:26:44;4.30;;;3.90;;
12005;SDS011;6062;47.294;12.182;2023-04-06T11:29:26;3.67;;;3.28;;
12005;SDS011;6062;47.294;12.182;2023-04-06T11:32:02;4.22;;;3.50;;
12005;SDS011;6062;47.294;12.182;2023-04-06T11:34:32;4.18;;;3.47;;
12005;SDS011;6062;47.294;12.182;2023-04-06T11:37:02;3.88;;;3.50;;
12005;SDS011;6062;47.294;12.182;2023-04-06T11:39:36;4.15;;;3.47;;
12005;SDS011;6062;47.294;12.182;2023-04-06T11:42:12;3.55;;;3.25;;
12005;SDS011;6062;47.294;12.182;2023-04-06T11:44:45;3.92;;;3.53;;
12005;SDS011;6062;47.294;12.182;2023-04-06T11:47:11;3.83;;;3.40;;
12005;SDS011;6062;47.294;12.182;2023-04-06T11:49:38;4.00;;;3.42;;
12005;SDS011;6062;47.294;12.182;2023-04-06T11:52:16;3.55;;;3.25;;
12005;SDS011;6062;47.294;12.182;2023-04-06T11:54:47;4.40;;;3.20;;
12005;SDS011;6062;47.294;12.182;2023-04-06T11:57:14;3.50;;;3.20;;
12005;SDS011;6062;47.294;12.182;2023-04-06T11:59:41;4.03;;;3.58;;
12005;SDS011;6062;47.294;12.182;2023-04-06T12:02:08;3.53;;;3.22;;
12005;SDS011;6062;47.294;12.182;2023-04-06T12:04:34;4.30;;;3.50;;
12005;SDS011;6062;47.294;12.182;2023-04-06T12:07:00;3.92;;;3.28;;
12005;SDS011;6062;47.294;12.182;2023-04-06T12:09:26;4.43;;;3.60;;
12005;SDS011;6062;47.294;12.182;2023-04-06T12:11:52;3.85;;;3.55;;
12005;SDS011;6062;47.294;12.182;2023-04-06T12:14:17;3.83;;;3.47;;
12005;SDS011;6062;47.294;12.182;2023-04-06T12:16:43;3.72;;;3.38;;
12005;SDS011;6062;47.294;12.182;2023-04-06T12:19:09;3.80;;;3.40;;
12005;SDS011;6062;47.294;12.182;2023-04-06T12:21:34;4.00;;;3.53;;
12005;SDS011;6062;47.294;12.182;2023-04-06T12:24:04;3.20;;;2.85;;
12005;SDS011;6062;47.294;12.182;2023-04-06T12:26:30;3.72;;;3.40;;
12005;SDS011;6062;47.294;12.182;2023-04-06T12:28:58;3.50;;;3.10;;
12005;SDS011;6062;47.294;12.182;2023-04-06T12:31:31;4.28;;;3.40;;
12005;SDS011;6062;47.294;12.182;2023-04-06T12:33:58;3.72;;;3.38;;
12005;SDS011;6062;47.294;12.182;2023-04-06T12:36:23;3.70;;;3.40;;
12005;SDS011;6062;47.294;12.182;2023-04-06T12:38:50;3.60;;;3.30;;
12005;SDS011;6062;47.294;12.182;2023-04-06T12:41:16;3.50;;;3.00;;
12005;SDS011;6062;47.294;12.182;2023-04-06T12:43:43;3.80;;;3.40;;
12005;SDS011;6062;47.294;12.182;2023-04-06T12:46:10;4.00;;;3.55;;
12005;SDS011;6062;47.294;12.182;2023-04-06T12:48:36;4.20;;;3.40;;
12005;SDS011;6062;47.294;12.182;2023-04-06T12:51:04;3.25;;;2.95;;
12005;SDS011;6062;47.294;12.182;2023-04-06T12:53:31;3.70;;;3.30;;
12005;SDS011;6062;47.294;12.182;2023-04-06T12:55:58;4.03;;;3.30;;
12005;SDS011;6062;47.294;12.182;2023-04-06T12:58:26;3.70;;;3.17;;
12005;SDS011;6062;47.294;12.182;2023-04-06T13:00:52;3.38;;;3.03;;
12005;SDS011;6062;47.294;12.182;2023-04-06T13:03:19;3.40;;;3.10;;
12005;SDS011;6062;47.294;12.182;2023-04-06T13:05:52;4.43;;;3.97;;
12005;SDS011;6062;47.294;12.182;2023-04-06T13:08:18;3.60;;;3.30;;
12005;SDS011;6062;47.294;12.182;2023-04-06T13:10:49;3.88;;;3.47;;
12005;SDS011;6062;47.294;12.182;2023-04-06T13:13:17;3.22;;;2.92;;
12005;SDS011;6062;47.294;12.182;2023-04-06T13:15:48;3.80;;;3.40;;
12005;SDS011;6062;47.294;12.182;2023-04-06T13:18:14;4.50;;;3.40;;
12005;SDS011;6062;47.294;12.182;2023-04-06T13:20:41;3.80;;;3.40;;
12005;SDS011;6062;47.294;12.182;2023-04-06T13:23:07;3.17;;;2.88;;
12005;SDS011;6062;47.294;12.182;2023-04-06T13:25:33;3.97;;;3.35;;
12005;SDS011;6062;47.294;12.182;2023-04-06T13:27:58;3.42;;;3.13;;
12005;SDS011;6062;47.294;12.182;2023-04-06T13:30:24;3.90;;;3.47;;
12005;SDS011;6062;47.294;12.182;2023-04-06T13:32:50;3.72;;;3.33;;
12005;SDS011;6062;47.294;12.182;2023-04-06T13:35:16;4.20;;;3.53;;
12005;SDS011;6062;47.294;12.182;2023-04-06T13:37:43;3.85;;;3.05;;
12005;SDS011;6062;47.294;12.182;2023-04-06T13:40:09;3.70;;;3.25;;
12005;SDS011;6062;47.294;12.182;2023-04-06T13:42:36;3.78;;;3.38;;
12005;SDS011;6062;47.294;12.182;2023-04-06T13:45:06;3.72;;;3.30;;
12005;SDS011;6062;47.294;12.182;2023-04-06T13:47:32;4.00;;;2.83;;
12005;SDS011;6062;47.294;12.182;2023-04-06T13:49:58;3.47;;;3.17;;
12005;SDS011;6062;47.294;12.182;2023-04-06T13:52:24;3.22;;;2.92;;
12005;SDS011;6062;47.294;12.182;2023-04-06T13:54:50;3.55;;;3.25;;
12005;SDS011;6062;47.294;12.182;2023-04-06T13:57:15;4.65;;;3.33;;
12005;SDS011;6062;47.294;12.182;2023-04-06T13:59:42;3.95;;;2.88;;
12005;SDS011;6062;47.294;12.182;2023-04-06T14:02:08;3.05;;;2.75;;
12005;SDS011;6062;47.294;12.182;2023-04-06T14:04:36;4.35;;;3.10;;
12005;SDS011;6062;47.294;12.182;2023-04-06T14:07:02;5.05;;;3.10;;
12005;SDS011;6062;47.294;12.182;2023-04-06T14:09:28;3.85;;;3.25;;
12005;SDS011;6062;47.294;12.182;2023-04-06T14:11:55;5.03;;;3.35;;
12005;SDS011;6062;47.294;12.182;2023-04-06T14:14:22;3.47;;;3.17;;
12005;SDS011;6062;47.294;12.182;2023-04-06T14:16:48;3.75;;;3.10;;
12005;SDS011;6062;47.294;12.182;2023-04-06T14:19:16;5.13;;;3.20;;
12005;SDS011;6062;47.294;12.182;2023-04-06T14:21:43;3.53;;;3.03;;
12005;SDS011;6062;47.294;12.182;2023-04-06T14:24:10;3.65;;;2.83;;
12005;SDS011;6062;47.294;12.182;2023-04-06T14:26:37;3.35;;;3.05;;
12005;SDS011;6062;47.294;12.182;2023-04-06T14:29:04;4.05;;;3.42;;
12005;SDS011;6062;47.294;12.182;2023-04-06T14:31:31;3.78;;;3.47;;
12005;SDS011;6062;47.294;12.182;2023-04-06T14:33:57;3.75;;;3.40;;
12005;SDS011;6062;47.294;12.182;2023-04-06T14:36:23;4.05;;;3.15;;
12005;SDS011;6062;47.294;12.182;2023-04-06T14:38:52;3.38;;;3.08;;
12005;SDS011;6062;47.294;12.182;2023-04-06T14:41:18;3.60;;;2.97;;
12005;SDS011;6062;47.294;12.182;2023-04-06T14:43:46;3.60;;;3.15;;
12005;SDS011;6062;47.294;12.182;2023-04-06T14:46:12;3.47;;;3.17;;
12005;SDS011;6062;47.294;12.182;2023-04-06T14:48:38;3.38;;;3.05;;
12005;SDS011;6062;47.294;12.182;2023-04-06T14:51:04;3.42;;;3.10;;
12005;SDS011;6062;47.294;12.182;2023-04-06T14:53:30;3.28;;;2.97;;
12005;SDS011;6062;47.294;12.182;2023-04-06T14:55:56;4.00;;;2.92;;
12005;SDS011;6062;47.294;12.182;2023-04-06T14:58:22;3.45;;;3.15;;
12005;SDS011;6062;47.294;12.182;2023-04-06T15:00:49;3.72;;;3.10;;
12005;SDS011;6062;47.294;12.182;2023-04-06T15:03:21;4.13;;;3.00;;
12005;SDS011;6062;47.294;12.182;2023-04-06T15:05:47;4.57;;;3.20;;
12005;SDS011;6062;47.294;12.182;2023-04-06T15:08:13;4.70;;;3.30;;
12005;SDS011;6062;47.294;12.182;2023-04-06T15:10:40;4.77;;;3.50;;
12005;SDS011;6062;47.294;12.182;2023-04-06T15:13:05;3.50;;;3.13;;
12005;SDS011;6062;47.294;12.182;2023-04-06T15:15:31;3.37;;;3.07;;
12005;SDS011;6062;47.294;12.182;2023-04-06T15:17:57;3.50;;;2.97;;
12005;SDS011;6062;47.294;12.182;2023-04-06T15:20:23;3.17;;;2.88;;
12005;SDS011;6062;47.294;12.182;2023-04-06T15:22:48;3.60;;;3.00;;
12005;SDS011;6062;47.294;12.182;2023-04-06T15:25:14;5.10;;;4.07;;
12005;SDS011;6062;47.294;12.182;2023-04-06T15:27:40;4.87;;;3.77;;
12005;SDS011;6062;47.294;12.182;2023-04-06T15:30:06;6.43;;;4.90;;
12005;SDS011;6062;47.294;12.182;2023-04-06T15:32:32;6.93;;;5.63;;
12005;SDS011;6062;47.294;12.182;2023-04-06T15:34:58;6.57;;;5.17;;
12005;SDS011;6062;47.294;12.182;2023-04-06T15:37:24;4.47;;;3.73;;
12005;SDS011;6062;47.294;12.182;2023-04-06T15:39:51;10.27;;;8.13;;
12005;SDS011;6062;47.294;12.182;2023-04-06T15:42:17;8.30;;;6.60;;
12005;SDS011;6062;47.294;12.182;2023-04-06T15:44:42;4.23;;;3.83;;
12005;SDS011;6062;47.294;12.182;2023-04-06T15:47:08;3.60;;;3.30;;
12005;SDS011;6062;47.294;12.182;2023-04-06T15:49:34;4.43;;;2.90;;
12005;SDS011;6062;47.294;12.182;2023-04-06T15:52:00;3.57;;;2.73;;
12005;SDS011;6062;47.294;12.182;2023-04-06T15:54:25;3.50;;;3.00;;
12005;SDS011;6062;47.294;12.182;2023-04-06T15:56:51;4.53;;;3.70;;
12005;SDS011;6062;47.294;12.182;2023-04-06T15:59:17;13.60;;;11.07;;
12005;SDS011;6062;47.294;12.182;2023-04-06T16:01:42;6.67;;;5.67;;
12005;SDS011;6062;47.294;12.182;2023-04-06T16:04:10;4.17;;;3.73;;
12005;SDS011;6062;47.294;12.182;2023-04-06T16:06:37;4.37;;;3.63;;
12005;SDS011;6062;47.294;12.182;2023-04-06T16:09:02;4.87;;;3.97;;
12005;SDS011;6062;47.294;12.182;2023-04-06T16:11:28;4.00;;;3.10;;
12005;SDS011;6062;47.294;12.182;2023-04-06T16:13:54;4.03;;;2.90;;
12005;SDS011;6062;47.294;12.182;2023-04-06T16:16:20;5.87;;;3.10;;
12005;SDS011;6062;47.294;12.182;2023-04-06T16:18:45;3.90;;;2.97;;
12005;SDS011;6062;47.294;12.182;2023-04-06T16:21:14;3.63;;;3.23;;
12005;SDS011;6062;47.294;12.182;2023-04-06T16:23:41;3.40;;;3.03;;
12005;SDS011;6062;47.294;12.182;2023-04-06T16:26:11;3.90;;;3.10;;
12005;SDS011;6062;47.294;12.182;2023-04-06T16:28:42;4.20;;;3.30;;
12005;SDS011;6062;47.294;12.182;2023-04-06T16:31:15;3.97;;;2.93;;
12005;SDS011;6062;47.294;12.182;2023-04-06T16:33:46;4.23;;;3.00;;
12005;SDS011;6062;47.294;12.182;2023-04-06T16:36:13;3.47;;;2.70;;
12005;SDS011;6062;47.294;12.182;2023-04-06T16:38:50;3.40;;;3.10;;
12005;SDS011;6062;47.294;12.182;2023-04-06T16:41:16;4.00;;;2.73;;
12005;SDS011;6062;47.294;12.182;2023-04-06T16:43:42;3.43;;;2.77;;
12005;SDS011;6062;47.294;12.182;2023-04-06T16:46:08;2.60;;;2.40;;
12005;SDS011;6062;47.294;12.182;2023-04-06T16:48:33;3.07;;;2.60;;
12005;SDS011;6062;47.294;12.182;2023-04-06T16:51:08;3.53;;;2.90;;
12005;SDS011;6062;47.294;12.182;2023-04-06T16:53:34;5.67;;;3.87;;
12005;SDS011;6062;47.294;12.182;2023-04-06T16:56:02;4.67;;;3.80;;
12005;SDS011;6062;47.294;12.182;2023-04-06T16:58:32;3.73;;;3.10;;
12005;SDS011;6062;47.294;12.182;2023-04-06T17:00:59;3.10;;;2.80;;
12005;SDS011;6062;47.294;12.182;2023-04-06T17:03:25;3.83;;;3.03;;
12005;SDS011;6062;47.294;12.182;2023-04-06T17:05:51;3.93;;;2.90;;
12005;SDS011;6062;47.294;12.182;2023-04-06T17:08:17;5.13;;;2.80;;
12005;SDS011;6062;47.294;12.182;2023-04-06T17:10:43;3.67;;;3.10;;
12005;SDS011;6062;47.294;12.182;2023-04-06T17:13:09;4.00;;;2.97;;
12005;SDS011;6062;47.294;12.182;2023-04-06T17:15:34;4.57;;;3.00;;
12005;SDS011;6062;47.294;12.182;2023-04-06T17:18:00;3.50;;;2.90;;
12005;SDS011;6062;47.294;12.182;2023-04-06T17:20:26;4.83;;;2.77;;
12005;SDS011;6062;47.294;12.182;2023-04-06T17:22:52;3.47;;;3.10;;
12005;SDS011;6062;47.294;12.182;2023-04-06T17:25:18;4.97;;;3.40;;
12005;SDS011;6062;47.294;12.182;2023-04-06T17:27:44;4.67;;;3.70;;
12005;SDS011;6062;47.294;12.182;2023-04-06T17:30:10;4.13;;;3.30;;
12005;SDS011;6062;47.294;12.182;2023-04-06T17:32:37;5.70;;;4.87;;
12005;SDS011;6062;47.294;12.182;2023-04-06T17:35:03;5.93;;;4.57;;
12005;SDS011;6062;47.294;12.182;2023-04-06T17:37:30;19.80;;;12.67;;
12005;SDS011;6062;47.294;12.182;2023-04-06T17:39:56;22.40;;;15.30;;
12005;SDS011;6062;47.294;12.182;2023-04-06T17:42:22;10.17;;;7.87;;
12005;SDS011;6062;47.294;12.182;2023-04-06T17:44:48;5.90;;;4.83;;
12005;SDS011;6062;47.294;12.182;2023-04-06T17:47:14;5.60;;;4.30;;
12005;SDS011;6062;47.294;12.182;2023-04-06T17:49:40;3.87;;;3.47;;
12005;SDS011;6062;47.294;12.182;2023-04-06T17:52:06;6.03;;;3.77;;
12005;SDS011;6062;47.294;12.182;2023-04-06T17:54:35;4.73;;;3.33;;
12005;SDS011;6062;47.294;12.182;2023-04-06T17:57:01;4.97;;;3.83;;
12005;SDS011;6062;47.294;12.182;2023-04-06T17:59:28;7.07;;;4.57;;
12005;SDS011;6062;47.294;12.182;2023-04-06T18:01:54;20.97;;;12.17;;
12005;SDS011;6062;47.294;12.182;2023-04-06T18:04:20;12.00;;;8.83;;
12005;SDS011;6062;47.294;12.182;2023-04-06T18:06:46;6.40;;;4.80;;
12005;SDS011;6062;47.294;12.182;2023-04-06T18:09:12;4.37;;;3.67;;
12005;SDS011;6062;47.294;12.182;2023-04-06T18:11:38;5.07;;;3.73;;
12005;SDS011;6062;47.294;12.182;2023-04-06T18:14:07;5.23;;;3.53;;
12005;SDS011;6062;47.294;12.182;2023-04-06T18:16:34;4.17;;;3.20;;
12005;SDS011;6062;47.294;12.182;2023-04-06T18:19:00;5.67;;;3.00;;
12005;SDS011;6062;47.294;12.182;2023-04-06T18:21:28;4.83;;;3.37;;
12005;SDS011;6062;47.294;12.182;2023-04-06T18:23:55;3.30;;;2.90;;
12005;SDS011;6062;47.294;12.182;2023-04-06T18:26:22;3.37;;;3.07;;
12005;SDS011;6062;47.294;12.182;2023-04-06T18:28:49;3.70;;;3.10;;
12005;SDS011;6062;47.294;12.182;2023-04-06T18:31:15;5.17;;;3.30;;
12005;SDS011;6062;47.294;12.182;2023-04-06T18:33:41;5.77;;;3.67;;
12005;SDS011;6062;47.294;12.182;2023-04-06T18:36:07;4.20;;;3.20;;
12005;SDS011;6062;47.294;12.182;2023-04-06T18:38:35;4.57;;;3.13;;
12005;SDS011;6062;47.294;12.182;2023-04-06T18:41:05;4.80;;;3.40;;
12005;SDS011;6062;47.294;12.182;2023-04-06T18:43:31;4.07;;;3.23;;
12005;SDS011;6062;47.294;12.182;2023-04-06T18:45:57;3.80;;;3.40;;
12005;SDS011;6062;47.294;12.182;2023-04-06T18:48:24;4.43;;;3.53;;
12005;SDS011;6062;47.294;12.182;2023-04-06T18:50:51;4.37;;;3.00;;
12005;SDS011;6062;47.294;12.182;2023-04-06T18:53:18;6.13;;;3.00;;
12005;SDS011;6062;47.294;12.182;2023-04-06T18:55:45;4.03;;;3.30;;
12005;SDS011;6062;47.294;12.182;2023-04-06T18:58:11;5.70;;;4.00;;
12005;SDS011;6062;47.294;12.182;2023-04-06T19:00:38;5.70;;;3.43;;
12005;SDS011;6062;47.294;12.182;2023-04-06T19:03:05;3.90;;;3.20;;
12005;SDS011;6062;47.294;12.182;2023-04-06T19:05:31;3.77;;;3.03;;
12005;SDS011;6062;47.294;12.182;2023-04-06T19:07:57;3.73;;;3.10;;
12005;SDS011;6062;47.294;12.182;2023-04-06T19:10:22;4.73;;;3.43;;
12005;SDS011;6062;47.294;12.182;2023-04-06T19:12:48;4.67;;;3.60;;
12005;SDS011;6062;47.294;12.182;2023-04-06T19:15:14;4.30;;;3.43;;
12005;SDS011;6062;47.294;12.182;2023-04-06T19:17:40;6.03;;;4.00;;
12005;SDS011;6062;47.294;12.182;2023-04-06T19:20:06;4.33;;;3.23;;
12005;SDS011;6062;47.294;12.182;2023-04-06T19:22:36;5.37;;;4.00;;
12005;SDS011;6062;47.294;12.182;2023-04-06T19:25:02;5.67;;;3.93;;
12005;SDS011;6062;47.294;12.182;2023-04-06T19:27:30;7.03;;;4.47;;
12005;SDS011;6062;47.294;12.182;2023-04-06T19:29:55;8.97;;;5.17;;
12005;SDS011;6062;47.294;12.182;2023-04-06T19:32:21;7.60;;;5.00;;
12005;SDS011;6062;47.294;12.182;2023-04-06T19:34:48;6.83;;;3.97;;
12005;SDS011;6062;47.294;12.182;2023-04-06T19:37:14;7.90;;;4.93;;
12005;SDS011;6062;47.294;12.182;2023-04-06T19:39:39;7.13;;;4.80;;
12005;SDS011;6062;47.294;12.182;2023-04-06T19:42:08;7.63;;;4.43;;
12005;SDS011;6062;47.294;12.182;2023-04-06T19:44:34;8.13;;;4.70;;
12005;SDS011;6062;47.294;12.182;2023-04-06T19:47:00;6.50;;;4.47;;
12005;SDS011;6062;47.294;12.182;2023-04-06T19:49:27;5.03;;;4.23;;
12005;SDS011;6062;47.294;12.182;2023-04-06T19:51:55;4.27;;;3.53;;
12005;SDS011;6062;47.294;12.182;2023-04-06T19:54:21;5.93;;;4.07;;
12005;SDS011;6062;47.294;12.182;2023-04-06T19:56:47;7.87;;;4.00;;
12005;SDS011;6062;47.294;12.182;2023-04-06T19:59:13;5.33;;;3.70;;
12005;SDS011;6062;47.294;12.182;2023-04-06T20:01:41;7.27;;;4.43;;
12005;SDS011;6062;47.294;12.182;2023-04-06T20:04:09;6.60;;;4.10;;
12005;SDS011;6062;47.294;12.182;2023-04-06T20:06:36;5.50;;;3.70;;
12005;SDS011;6062;47.294;12.182;2023-04-06T20:09:02;4.67;;;3.60;;
12005;SDS011;6062;47.294;12.182;2023-04-06T20:11:27;5.70;;;3.70;;
12005;SDS011;6062;47.294;12.182;2023-04-06T20:13:53;5.20;;;3.77;;
12005;SDS011;6062;47.294;12.182;2023-04-06T20:16:19;5.23;;;3.73;;
12005;SDS011;6062;47.294;12.182;2023-04-06T20:18:45;3.80;;;3.40;;
12005;SDS011;6062;47.294;12.182;2023-04-06T20:21:11;4.60;;;3.60;;
12005;SDS011;6062;47.294;12.182;2023-04-06T20:23:36;6.00;;;4.03;;
12005;SDS011;6062;47.294;12.182;2023-04-06T20:26:03;4.27;;;3.47;;
12005;SDS011;6062;47.294;12.182;2023-04-06T20:28:32;4.00;;;3.60;;
12005;SDS011;6062;47.294;12.182;2023-04-06T20:30:58;5.00;;;3.50;;
12005;SDS011;6062;47.294;12.182;2023-04-06T20:33:24;5.63;;;3.27;;
12005;SDS011;6062;47.294;12.182;2023-04-06T20:35:57;4.20;;;3.47;;
12005;SDS011;6062;47.294;12.182;2023-04-06T20:38:24;4.93;;;3.80;;
12005;SDS011;6062;47.294;12.182;2023-04-06T20:40:50;4.53;;;3.50;;
12005;SDS011;6062;47.294;12.182;2023-04-06T20:43:16;4.97;;;3.83;;
12005;SDS011;6062;47.294;12.182;2023-04-06T20:45:44;5.87;;;3.90;;
12005;SDS011;6062;47.294;12.182;2023-04-06T20:48:10;4.63;;;3.47;;
12005;SDS011;6062;47.294;12.182;2023-04-06T20:50:37;15.57;;;9.53;;
12005;SDS011;6062;47.294;12.182;2023-04-06T20:53:03;8.90;;;6.40;;
12005;SDS011;6062;47.294;12.182;2023-04-06T20:55:29;8.43;;;5.53;;
12005;SDS011;6062;47.294;12.182;2023-04-06T20:57:55;6.17;;;4.57;;
12005;SDS011;6062;47.294;12.182;2023-04-06T21:00:20;6.17;;;4.93;;
12005;SDS011;6062;47.294;12.182;2023-04-06T21:02:46;6.50;;;5.07;;
12005;SDS011;6062;47.294;12.182;2023-04-06T21:05:12;5.60;;;4.60;;
12005;SDS011;6062;47.294;12.182;2023-04-06T21:07:38;6.90;;;4.20;;
12005;SDS011;6062;47.294;12.182;2023-04-06T21:10:03;6.00;;;3.77;;
12005;SDS011;6062;47.294;12.182;2023-04-06T21:12:30;6.53;;;4.20;;
12005;SDS011;6062;47.294;12.182;2023-04-06T21:14:56;7.10;;;4.43;;
12005;SDS011;6062;47.294;12.182;2023-04-06T21:17:22;7.20;;;4.70;;
12005;SDS011;6062;47.294;12.182;2023-04-06T21:19:48;5.50;;;4.50;;
12005;SDS011;6062;47.294;12.182;2023-04-06T21:22:14;5.33;;;3.77;;
12005;SDS011;6062;47.294;12.182;2023-04-06T21:24:39;3.97;;;3.50;;
12005;SDS011;6062;47.294;12.182;2023-04-06T21:27:06;4.90;;;3.70;;
12005;SDS011;6062;47.294;12.182;2023-04-06T21:29:32;4.33;;;3.80;;
12005;SDS011;6062;47.294;12.182;2023-04-06T21:31:58;5.47;;;3.57;;
12005;SDS011;6062;47.294;12.182;2023-04-06T21:34:23;5.03;;;3.60;;
